Time;durP1;ratioP1;P1;durP2;ratioP2;P2;SDS_P1;SDS_P2;PMS_P1;PMS_P2;Temp;Humidity;BMP_temperature;BMP_pressure;BME280_temperature;BME280_humidity;BME280_pressure;Samples;Min_cycle;Max_cycle;Signal;HPM_P1;HPM_P2
2021/08/22 00:00:07;;;;;;;2.63;2.43;;;;;;;25.43;45.19;98362.28;4995078;28;20628;-59
2021/08/22 00:02:37;;;;;;;2.63;2.43;;;;;;;25.39;44.88;98353.06;4995955;28;20562;-59
2021/08/22 00:05:04;;;;;;;2.50;2.40;;;;;;;25.42;44.94;98357.97;4996503;28;20183;-59
2021/08/22 00:07:31;;;;;;;2.67;2.47;;;;;;;25.42;44.92;98374.00;4996047;28;20206;-59
2021/08/22 00:09:58;;;;;;;2.60;2.40;;;;;;;25.42;45.10;98390.03;4996020;28;20187;-58
2021/08/22 00:12:24;;;;;;;2.43;2.33;;;;;;;25.45;45.09;98388.81;4995835;28;20693;-59
2021/08/22 00:14:51;;;;;;;2.50;2.30;;;;;;;25.41;45.12;98398.25;4995809;28;20195;-59
2021/08/22 00:17:17;;;;;;;2.50;2.40;;;;;;;25.34;45.15;98392.94;4995616;28;20223;-59
2021/08/22 00:19:45;;;;;;;2.40;2.20;;;;;;;25.31;45.14;98396.00;4995838;28;20246;-59
2021/08/22 00:22:12;;;;;;;2.23;2.13;;;;;;;25.30;45.20;98386.34;4995646;28;20615;-59
2021/08/22 00:24:38;;;;;;;2.50;2.30;;;;;;;25.28;45.25;98385.72;4995920;28;20187;-59
2021/08/22 00:27:05;;;;;;;2.57;2.37;;;;;;;25.30;45.17;98391.69;4995628;28;20191;-59
2021/08/22 00:29:31;;;;;;;2.57;2.37;;;;;;;25.29;45.21;98398.06;4994340;28;20196;-59
2021/08/22 00:31:58;;;;;;;2.80;2.57;;;;;;;25.29;45.20;98396.22;4994325;28;20225;-59
2021/08/22 00:34:24;;;;;;;2.60;2.40;;;;;;;25.31;45.22;98404.00;4995993;28;20179;-59
2021/08/22 00:36:51;;;;;;;2.40;2.30;;;;;;;25.30;45.00;98400.53;4995591;28;20198;-59
2021/08/22 00:39:17;;;;;;;2.70;2.50;;;;;;;25.32;45.30;98408.31;4995431;28;20196;-59
2021/08/22 00:41:44;;;;;;;2.50;2.30;;;;;;;25.31;45.22;98406.69;4995403;28;20733;-59
2021/08/22 00:44:10;;;;;;;2.40;2.20;;;;;;;25.30;45.11;98399.69;4995271;28;20606;-59
2021/08/22 00:46:37;;;;;;;2.87;2.67;;;;;;;25.27;45.09;98394.78;4994065;28;20203;-59
2021/08/22 00:49:07;;;;;;;2.53;2.33;;;;;;;25.27;45.21;98402.78;4995489;28;20615;-59
2021/08/22 00:51:34;;;;;;;2.80;2.60;;;;;;;25.28;45.19;98399.94;4993970;28;20211;-59
2021/08/22 00:54:01;;;;;;;2.27;2.17;;;;;;;25.29;45.08;98395.38;4995228;28;20183;-59
2021/08/22 00:56:30;;;;;;;2.53;2.33;;;;;;;25.21;45.46;98399.94;4995197;28;20191;-60
2021/08/22 00:59:00;;;;;;;2.60;2.40;;;;;;;25.27;45.27;98392.94;4995129;28;20537;-59
2021/08/22 01:01:26;;;;;;;2.60;2.40;;;;;;;25.29;45.11;98392.72;4993831;28;20217;-59
2021/08/22 01:03:59;;;;;;;2.57;2.37;;;;;;;25.30;45.04;98389.84;4995184;28;20207;-59
2021/08/22 01:06:40;;;;;;;2.50;2.30;;;;;;;25.29;45.19;98374.84;4994227;28;20176;-59
2021/08/22 01:09:22;;;;;;;2.40;2.30;;;;;;;25.28;45.31;98377.72;4995195;28;20577;-59
2021/08/22 01:11:50;;;;;;;2.70;2.50;;;;;;;25.29;44.91;98380.19;4995024;28;20553;-59
2021/08/22 01:14:22;;;;;;;2.23;2.13;;;;;;;25.33;45.07;98397.44;4994898;28;20211;-59
2021/08/22 01:16:56;;;;;;;2.50;2.30;;;;;;;25.29;45.10;98384.72;4995115;28;20200;-59
2021/08/22 01:19:30;;;;;;;2.57;2.37;;;;;;;25.24;45.08;98385.31;4995046;28;20201;-59
2021/08/22 01:21:59;;;;;;;2.30;2.20;;;;;;;25.24;45.14;98374.63;4994808;28;20211;-59
2021/08/22 01:24:27;;;;;;;2.47;2.27;;;;;;;25.26;45.29;98374.44;4994827;28;20207;-59
2021/08/22 01:26:57;;;;;;;2.10;2.00;;;;;;;25.29;45.10;98384.72;4994600;28;20670;-59
2021/08/22 01:29:29;;;;;;;2.20;2.00;;;;;;;25.28;45.09;98383.06;4992717;28;20238;-59
2021/08/22 01:31:59;;;;;;;2.20;2.10;;;;;;;25.31;45.09;98385.31;4994738;28;20227;-59
2021/08/22 01:34:28;;;;;;;2.67;2.47;;;;;;;25.28;45.11;98385.72;4993582;28;20195;-59
2021/08/22 01:36:57;;;;;;;2.17;2.07;;;;;;;25.30;44.91;98378.34;4993917;28;20512;-59
2021/08/22 01:39:24;;;;;;;2.40;2.20;;;;;;;25.28;45.19;98386.56;4994383;28;20243;-59
2021/08/22 01:41:51;;;;;;;2.63;2.40;;;;;;;25.29;45.22;98390.06;4994204;28;20273;-59
2021/08/22 01:44:20;;;;;;;2.70;2.50;;;;;;;25.30;44.90;98381.00;4994413;28;20215;-59
2021/08/22 01:46:48;;;;;;;2.50;2.30;;;;;;;25.26;45.27;98379.78;4994273;28;20222;-58
2021/08/22 01:49:19;;;;;;;2.50;2.30;;;;;;;25.22;45.31;98380.19;4992981;28;20226;-59
2021/08/22 01:51:46;;;;;;;2.30;2.20;;;;;;;25.22;45.02;98379.38;4994123;28;20208;-59
2021/08/22 01:54:12;;;;;;;2.30;2.20;;;;;;;25.22;45.37;98382.88;4994119;28;20199;-59
2021/08/22 01:56:40;;;;;;;2.17;2.07;;;;;;;25.20;45.13;98382.25;4994508;28;20192;-59
2021/08/22 01:59:08;;;;;;;2.47;2.27;;;;;;;25.19;45.19;98383.28;4994582;28;20191;-59
2021/08/22 02:01:36;;;;;;;2.60;2.40;;;;;;;25.19;44.98;98393.97;4992727;28;20216;-59
2021/08/22 02:04:12;;;;;;;2.00;1.90;;;;;;;25.22;45.35;98390.88;4994125;28;20298;-59
2021/08/22 02:06:57;;;;;;;2.50;2.30;;;;;;;25.25;45.16;98394.16;4994179;28;20179;-59
2021/08/22 02:09:39;;;;;;;2.23;2.13;;;;;;;25.25;45.36;98388.81;4994438;28;20186;-59
2021/08/22 02:12:13;;;;;;;2.30;2.20;;;;;;;25.24;45.20;98390.66;4993802;28;20262;-59
2021/08/22 02:14:44;;;;;;;2.50;2.30;;;;;;;25.27;45.11;98381.44;4994108;28;20610;-58
2021/08/22 02:17:12;;;;;;;2.60;2.40;;;;;;;25.25;44.99;98378.97;4994296;28;20171;-59
2021/08/22 02:19:40;;;;;;;2.43;2.17;;;;;;;25.33;45.08;98377.91;4992437;28;20230;-59
2021/08/22 02:22:06;;;;;;;2.30;2.20;;;;;;;25.29;44.99;98374.03;4993891;28;20615;-59
2021/08/22 02:24:33;;;;;;;2.23;2.13;;;;;;;25.28;44.98;98369.72;4993548;28;20211;-59
2021/08/22 02:27:00;;;;;;;2.53;2.33;;;;;;;25.27;45.25;98370.75;4993620;28;20191;-59
2021/08/22 02:29:26;;;;;;;2.30;2.20;;;;;;;25.26;44.95;98375.28;4992500;28;20195;-59
2021/08/22 02:31:52;;;;;;;2.10;2.00;;;;;;;25.26;44.86;98375.28;4993810;28;20214;-59
2021/08/22 02:34:19;;;;;;;2.40;2.20;;;;;;;25.25;45.23;98378.97;4993861;28;20199;-59
2021/08/22 02:36:45;;;;;;;2.33;2.13;;;;;;;25.25;45.05;98375.47;4993597;28;20195;-59
2021/08/22 02:39:12;;;;;;;2.43;2.27;;;;;;;25.28;44.97;98377.72;4993756;28;20688;-59
2021/08/22 02:41:38;;;;;;;2.30;2.20;;;;;;;25.27;44.84;98378.75;4993478;28;20701;-59
2021/08/22 02:44:05;;;;;;;2.47;2.37;;;;;;;25.25;45.23;98386.16;4993407;28;20250;-59
2021/08/22 02:46:31;;;;;;;2.17;2.07;;;;;;;25.27;45.04;98376.91;4993684;28;20733;-59
2021/08/22 02:48:58;;;;;;;2.47;2.37;;;;;;;25.26;44.96;98385.97;4993424;28;20216;-59
2021/08/22 02:51:25;;;;;;;2.10;2.00;;;;;;;25.26;44.93;98382.47;4993330;28;20218;-59
2021/08/22 02:53:51;;;;;;;2.70;2.50;;;;;;;25.26;45.16;98385.13;4993656;28;20527;-59
2021/08/22 02:56:18;;;;;;;2.10;2.00;;;;;;;25.26;45.03;98387.78;4993293;28;20190;-60
2021/08/22 02:58:45;;;;;;;2.00;1.90;;;;;;;25.23;45.19;98386.34;4993785;28;20187;-59
2021/08/22 03:01:11;;;;;;;1.90;1.80;;;;;;;25.28;44.95;98388.41;4993470;28;20215;-59
2021/08/22 03:03:39;;;;;;;2.47;2.27;;;;;;;25.31;44.78;98382.66;4993525;28;20226;-59
2021/08/22 03:06:06;;;;;;;2.40;2.20;;;;;;;25.30;44.91;98381.84;4993239;28;20191;-59
2021/08/22 03:08:33;;;;;;;2.30;2.20;;;;;;;25.33;44.95;98376.06;4993162;28;20262;-59
2021/08/22 03:10:59;;;;;;;2.13;2.03;;;;;;;25.31;44.99;98377.31;4991892;28;20238;-59
2021/08/22 03:13:26;;;;;;;2.30;2.20;;;;;;;25.30;44.69;98379.16;4991986;28;20198;-59
2021/08/22 03:15:52;;;;;;;2.27;2.07;;;;;;;25.31;44.74;98382.66;4993109;28;20195;-59
2021/08/22 03:18:19;;;;;;;2.07;1.97;;;;;;;25.25;45.13;98386.16;4992030;28;20192;-59
2021/08/22 03:20:45;;;;;;;2.20;2.10;;;;;;;25.23;45.11;98373.84;4993084;28;20556;-59
2021/08/22 03:23:12;;;;;;;2.17;2.07;;;;;;;25.20;45.18;98376.09;4993527;28;20191;-59
2021/08/22 03:25:39;;;;;;;2.00;1.90;;;;;;;25.20;45.24;98382.25;4993204;28;20211;-59
2021/08/22 03:28:05;;;;;;;2.00;1.90;;;;;;;25.16;45.22;98375.66;4993165;28;20199;-59
2021/08/22 03:30:32;;;;;;;2.20;2.10;;;;;;;25.16;45.14;98386.34;4992946;28;20199;-59
2021/08/22 03:32:58;;;;;;;2.10;2.00;;;;;;;25.15;45.17;98378.56;4993041;28;20670;-59
2021/08/22 03:35:25;;;;;;;2.20;2.10;;;;;;;25.14;45.13;98376.94;4991922;28;20678;-59
2021/08/22 03:37:51;;;;;;;2.10;2.00;;;;;;;25.15;45.26;98379.38;4993536;28;20200;-59
2021/08/22 03:40:18;;;;;;;2.13;2.03;;;;;;;25.17;45.13;98387.19;4992948;28;20550;-59
2021/08/22 03:42:44;;;;;;;2.10;2.00;;;;;;;25.17;45.36;98385.34;4992897;28;20301;-59
2021/08/22 03:45:11;;;;;;;2.40;2.20;;;;;;;25.17;45.03;98380.00;4992871;28;20207;-59
2021/08/22 03:47:38;;;;;;;2.20;2.10;;;;;;;25.20;44.87;98376.94;4993491;28;20195;-59
2021/08/22 03:50:06;;;;;;;2.00;1.90;;;;;;;25.19;45.12;98377.13;4992849;28;20213;-59
2021/08/22 03:52:35;;;;;;;2.60;2.40;;;;;;;25.15;45.12;98379.38;4993931;28;20571;-59
2021/08/22 03:55:01;;;;;;;2.40;2.30;;;;;;;25.16;45.27;98373.00;4996491;28;20670;-59
2021/08/22 03:57:28;;;;;;;2.10;2.00;;;;;;;25.17;45.23;98374.66;4996664;28;20191;-59
2021/08/22 03:59:55;;;;;;;2.27;2.10;;;;;;;25.21;44.98;98370.56;4995136;28;20629;-59
2021/08/22 04:02:23;;;;;;;2.20;2.10;;;;;;;25.21;45.11;98373.22;4995002;28;20214;-59
2021/08/22 04:05:12;;;;;;;2.10;2.00;;;;;;;25.26;45.15;98377.13;4995096;28;20227;-59
2021/08/22 04:07:45;;;;;;;2.50;2.30;;;;;;;25.24;44.85;98377.31;4996211;28;20198;-59
2021/08/22 04:10:11;;;;;;;2.17;2.07;;;;;;;25.22;45.01;98379.38;4996527;28;20179;-59
2021/08/22 04:12:38;;;;;;;2.13;2.00;;;;;;;25.25;44.99;98375.47;4996041;28;20211;-59
2021/08/22 04:15:05;;;;;;;2.07;1.97;;;;;;;25.20;45.25;98386.78;4995948;28;20191;-59
2021/08/22 04:17:31;;;;;;;2.50;2.30;;;;;;;25.20;45.13;98384.94;4996070;28;20198;-59
2021/08/22 04:19:58;;;;;;;2.17;2.07;;;;;;;25.17;45.26;98388.03;4996250;28;20195;-59
2021/08/22 04:22:24;;;;;;;2.20;2.10;;;;;;;25.17;45.16;98388.03;4995958;28;20211;-59
2021/08/22 04:24:51;;;;;;;2.17;2.07;;;;;;;25.20;44.93;98384.94;4995894;28;20242;-59
2021/08/22 04:27:17;;;;;;;2.30;2.10;;;;;;;25.19;45.02;98385.97;4995841;28;20195;-59
2021/08/22 04:29:44;;;;;;;2.13;2.03;;;;;;;25.15;45.29;98400.72;4995763;28;20191;-59
2021/08/22 04:32:11;;;;;;;2.30;2.20;;;;;;;25.15;45.15;98386.56;4995045;28;20211;-59
2021/08/22 04:34:38;;;;;;;2.03;1.93;;;;;;;25.14;45.21;98398.28;4994523;28;20202;-59
2021/08/22 04:37:04;;;;;;;2.10;2.00;;;;;;;25.17;45.11;98401.38;4994398;28;20199;-59
2021/08/22 04:39:31;;;;;;;2.10;2.00;;;;;;;25.15;45.17;98395.41;4995623;28;20195;-58
2021/08/22 04:41:57;;;;;;;2.20;2.10;;;;;;;25.14;45.04;98393.75;4995701;28;20215;-59
2021/08/22 04:44:24;;;;;;;2.20;2.00;;;;;;;25.13;45.13;98389.44;4995480;28;20218;-59
2021/08/22 04:46:51;;;;;;;2.33;2.13;;;;;;;25.09;45.35;98391.72;4995484;28;20198;-59
2021/08/22 04:49:18;;;;;;;2.00;1.90;;;;;;;25.10;45.29;98387.19;4994562;28;20267;-59
2021/08/22 04:51:44;;;;;;;2.17;2.07;;;;;;;25.06;45.34;98391.31;4995316;28;20214;-59
2021/08/22 04:54:11;;;;;;;2.27;2.07;;;;;;;25.05;45.55;98387.00;4995429;28;20259;-59
2021/08/22 04:56:41;;;;;;;1.97;1.87;;;;;;;25.03;45.52;98391.72;4995765;28;20650;-59
2021/08/22 04:59:08;;;;;;;2.07;1.97;;;;;;;25.02;45.57;98393.56;4995515;28;20195;-59
2021/08/22 05:01:35;;;;;;;2.10;2.00;;;;;;;25.03;45.47;98391.72;4995352;28;20346;-59
2021/08/22 05:04:02;;;;;;;1.90;1.80;;;;;;;25.05;45.51;98387.81;4994821;28;20247;-59
2021/08/22 05:06:28;;;;;;;2.00;1.90;;;;;;;25.04;45.26;98388.03;4995005;28;20199;-59
2021/08/22 05:08:55;;;;;;;2.17;2.00;;;;;;;25.06;45.27;98396.66;4995134;28;20690;-59
2021/08/22 05:11:21;;;;;;;2.47;2.27;;;;;;;25.07;45.24;98398.28;4995096;28;20219;-59
2021/08/22 05:13:48;;;;;;;2.20;2.10;;;;;;;25.13;45.34;98400.13;4993884;28;20198;-59
2021/08/22 05:16:14;;;;;;;2.27;2.10;;;;;;;25.09;45.27;98401.56;4995367;28;20540;-60
2021/08/22 05:18:41;;;;;;;1.90;1.80;;;;;;;25.09;45.25;98404.25;4994990;28;20271;-59
2021/08/22 05:21:07;;;;;;;2.33;2.23;;;;;;;25.08;45.38;98399.94;4993565;28;20709;-59
2021/08/22 05:23:34;;;;;;;2.20;2.00;;;;;;;25.06;45.49;98405.47;4995145;28;20721;-59
2021/08/22 05:26:00;;;;;;;1.70;1.60;;;;;;;25.09;45.23;98409.56;4993566;28;20618;-59
2021/08/22 05:28:27;;;;;;;2.20;2.10;;;;;;;25.08;45.29;98405.28;4994824;28;20238;-59
2021/08/22 05:30:54;;;;;;;1.80;1.70;;;;;;;25.07;45.38;98412.44;4994779;28;20215;-59
2021/08/22 05:33:20;;;;;;;2.20;2.10;;;;;;;25.07;45.33;98414.31;4994747;28;20692;-59
2021/08/22 05:35:47;;;;;;;2.07;1.97;;;;;;;25.08;45.17;98414.09;4994723;28;20192;-58
2021/08/22 05:38:13;;;;;;;2.00;1.90;;;;;;;25.09;45.37;98417.59;4994677;28;20195;-59
2021/08/22 05:40:40;;;;;;;2.03;1.93;;;;;;;25.07;45.35;98420.44;4994567;28;20198;-60
2021/08/22 05:43:06;;;;;;;2.17;2.07;;;;;;;25.11;45.18;98425.41;4994800;28;20192;-59
2021/08/22 05:45:33;;;;;;;1.90;1.80;;;;;;;25.13;45.37;98428.69;4994480;28;20625;-59
2021/08/22 05:47:59;;;;;;;2.20;2.10;;;;;;;25.11;45.09;98436.09;4994388;28;20596;-60
2021/08/22 05:50:26;;;;;;;2.23;2.13;;;;;;;25.10;45.19;98429.91;4994481;28;20694;-59
2021/08/22 05:52:52;;;;;;;1.93;1.83;;;;;;;25.12;45.11;98433.19;4994345;28;20191;-60
2021/08/22 05:55:20;;;;;;;2.20;2.10;;;;;;;25.12;45.10;98427.84;4994331;28;20230;-60
2021/08/22 05:57:46;;;;;;;2.00;1.90;;;;;;;25.15;45.28;98427.44;4994275;28;20191;-59
2021/08/22 06:00:13;;;;;;;2.50;2.30;;;;;;;25.18;45.16;98443.06;4994265;28;20195;-60
2021/08/22 06:02:40;;;;;;;2.10;2.00;;;;;;;25.26;45.12;98446.56;4992888;28;20690;-59
2021/08/22 06:05:07;;;;;;;2.43;2.17;;;;;;;25.23;44.91;98450.44;4994114;28;20211;-59
2021/08/22 06:07:34;;;;;;;2.00;1.90;;;;;;;25.27;44.99;98442.84;4994102;28;20246;-58
2021/08/22 06:10:00;;;;;;;2.27;2.17;;;;;;;25.25;45.06;98450.25;4994051;28;20582;-59
2021/08/22 06:12:27;;;;;;;1.93;1.83;;;;;;;25.26;44.94;98455.41;4992883;28;20220;-59
2021/08/22 06:14:53;;;;;;;2.03;1.93;;;;;;;25.27;44.87;98451.69;4993859;28;20720;-60
2021/08/22 06:17:20;;;;;;;1.90;1.80;;;;;;;25.29;44.94;98459.47;4993759;28;20197;-59
2021/08/22 06:19:46;;;;;;;2.00;1.90;;;;;;;25.31;44.88;98458.25;4993885;28;20558;-60
2021/08/22 06:22:13;;;;;;;2.13;2.03;;;;;;;25.33;44.85;98460.72;4993812;28;20219;-59
2021/08/22 06:24:39;;;;;;;2.10;2.00;;;;;;;25.36;44.73;98460.31;4993773;28;20219;-59
2021/08/22 06:27:06;;;;;;;2.00;1.90;;;;;;;25.30;44.76;98463.81;4993767;28;20195;-59
2021/08/22 06:29:32;;;;;;;1.87;1.77;;;;;;;25.28;44.86;98465.84;4993902;28;20191;-59
2021/08/22 06:31:59;;;;;;;1.90;1.80;;;;;;;25.25;44.71;98466.28;4993666;28;20273;-59
2021/08/22 06:34:26;;;;;;;2.30;2.10;;;;;;;25.30;44.88;98461.97;4992468;28;20677;-59
2021/08/22 06:36:53;;;;;;;1.90;1.80;;;;;;;25.29;44.63;98459.47;4994065;28;20199;-59
2021/08/22 06:39:19;;;;;;;1.90;1.80;;;;;;;25.30;44.91;98455.78;4992539;28;20195;-59
2021/08/22 06:41:46;;;;;;;2.00;1.90;;;;;;;25.31;44.70;98452.91;4992307;28;20219;-59
2021/08/22 06:44:13;;;;;;;1.70;1.60;;;;;;;25.31;44.80;98454.75;4994064;28;20212;-59
2021/08/22 06:46:40;;;;;;;10.83;2.30;;;;;;;25.29;44.77;98454.97;4991631;28;20187;-61
2021/08/22 06:49:07;;;;;;;2.10;2.00;;;;;;;25.36;44.89;98454.97;4991517;28;20198;-61
2021/08/22 06:51:34;;;;;;;3.63;3.33;;;;;;;25.41;44.85;98457.84;4992241;28;20215;-60
2021/08/22 06:54:01;;;;;;;6.20;5.63;;;;;;;25.40;44.77;98461.56;4993862;28;20196;-58
2021/08/22 06:56:27;;;;;;;8.80;7.90;;;;;;;25.41;45.09;98463.19;4993788;28;20187;-60
2021/08/22 06:58:54;;;;;;;7.37;6.67;;;;;;;25.45;45.44;98459.06;4993552;28;20192;-60
2021/08/22 07:01:21;;;;;;;10.00;9.00;;;;;;;25.45;45.59;98459.06;4993489;28;20215;-60
2021/08/22 07:03:48;;;;;;;8.43;7.63;;;;;;;25.45;45.61;98460.94;4993386;28;20559;-59
2021/08/22 07:06:16;;;;;;;9.30;8.33;;;;;;;25.42;45.82;98453.34;4993327;28;20605;-58
2021/08/22 07:08:42;;;;;;;10.00;9.00;;;;;;;25.43;46.10;98455.78;4993634;28;20195;-60
2021/08/22 07:11:08;;;;;;;10.33;9.27;;;;;;;25.42;46.54;98456.81;4993286;28;20315;-59
2021/08/22 07:13:35;;;;;;;12.23;11.03;;;;;;;25.46;46.41;98452.69;4993347;28;20595;-58
2021/08/22 07:16:02;;;;;;;12.40;11.20;;;;;;;25.44;46.86;98454.75;4993165;28;20199;-59
2021/08/22 07:18:28;;;;;;;11.10;9.93;;;;;;;25.45;46.91;98453.72;4993495;28;20624;-59
2021/08/22 07:20:55;;;;;;;13.73;12.33;;;;;;;25.41;47.03;98451.66;4993652;28;20745;-59
2021/08/22 07:23:21;;;;;;;14.30;12.50;;;;;;;25.41;47.45;98457.00;4993184;28;20191;-58
2021/08/22 07:25:48;;;;;;;13.17;11.87;;;;;;;25.36;47.47;98453.13;4993595;28;20230;-58
2021/08/22 07:28:14;;;;;;;14.70;13.20;;;;;;;25.36;47.76;98445.09;4995113;28;20551;-58
2021/08/22 07:30:41;;;;;;;15.30;13.87;;;;;;;25.38;47.69;98458.25;4997113;28;20191;-58
2021/08/22 07:33:07;;;;;;;16.37;14.67;;;;;;;25.38;47.82;98463.59;4996925;28;20191;-58
2021/08/22 07:35:34;;;;;;;16.53;14.90;;;;;;;25.47;47.97;98461.53;4996926;28;20188;-58
2021/08/22 07:38:01;;;;;;;17.40;15.60;;;;;;;25.44;48.19;98457.44;4996932;28;20195;-58
2021/08/22 07:40:27;;;;;;;16.73;15.03;;;;;;;25.46;48.69;98470.59;4996736;28;20187;-58
2021/08/22 07:42:54;;;;;;;14.83;13.33;;;;;;;25.44;48.57;98469.97;4995392;28;20203;-60
2021/08/22 07:45:21;;;;;;;16.70;15.00;;;;;;;25.44;48.51;98457.44;4995407;28;20214;-58
2021/08/22 07:47:48;;;;;;;16.83;15.13;;;;;;;25.44;48.60;98452.09;4996599;28;20552;-58
2021/08/22 07:50:14;;;;;;;17.30;15.47;;;;;;;25.38;49.13;98452.91;4996542;28;20537;-58
2021/08/22 07:52:41;;;;;;;17.73;15.93;;;;;;;25.34;49.37;98463.19;4996344;28;20720;-58
2021/08/22 07:55:08;;;;;;;17.57;15.00;;;;;;;25.42;49.23;98469.38;4996898;28;20350;-58
2021/08/22 07:57:35;;;;;;;16.23;14.53;;;;;;;25.38;49.37;98468.94;4996508;28;20601;-58
2021/08/22 08:00:02;;;;;;;14.40;13.00;;;;;;;25.42;49.00;98462.16;4996249;28;20198;-57
2021/08/22 08:02:37;;;;;;;16.43;14.73;;;;;;;25.46;49.03;98476.75;4995173;28;20219;-58
2021/08/22 08:05:04;;;;;;;15.07;13.57;;;;;;;25.45;48.86;98482.31;4994823;28;20310;-59
2021/08/22 08:07:30;;;;;;;13.87;11.60;;;;;;;25.41;49.11;98479.22;4996146;28;20194;-59
2021/08/22 08:09:57;;;;;;;14.80;13.37;;;;;;;25.38;48.92;98487.66;4996007;28;20199;-58
2021/08/22 08:12:24;;;;;;;14.40;12.90;;;;;;;25.37;49.30;98486.00;4996021;28;20208;-58
2021/08/22 08:14:51;;;;;;;14.43;12.93;;;;;;;25.31;49.39;98471.63;4994556;28;20257;-59
2021/08/22 08:17:17;;;;;;;16.30;14.63;;;;;;;25.31;49.49;98478.78;4996039;28;20192;-59
2021/08/22 08:19:43;;;;;;;16.03;14.00;;;;;;;25.28;49.93;98485.38;4995826;28;20195;-59
2021/08/22 08:22:10;;;;;;;15.77;14.17;;;;;;;25.29;49.88;98484.34;4995830;28;20570;-58
2021/08/22 08:24:37;;;;;;;15.47;14.00;;;;;;;25.30;49.90;98482.50;4995747;28;20191;-59
2021/08/22 08:27:04;;;;;;;15.57;12.93;;;;;;;25.34;49.67;98486.44;4995896;28;20568;-58
2021/08/22 08:29:30;;;;;;;13.93;12.63;;;;;;;25.35;49.78;98485.38;4996232;28;20191;-58
2021/08/22 08:31:57;;;;;;;13.53;12.23;;;;;;;25.37;49.78;98492.16;4995763;28;20211;-59
2021/08/22 08:34:23;;;;;;;14.17;12.77;;;;;;;25.41;49.36;98492.56;4995684;28;20191;-58
2021/08/22 08:36:50;;;;;;;13.33;12.13;;;;;;;25.43;49.33;98487.03;4995521;28;20192;-59
2021/08/22 08:39:17;;;;;;;13.10;11.90;;;;;;;25.43;49.51;98493.19;4995673;28;20196;-59
2021/08/22 08:41:43;;;;;;;13.33;12.03;;;;;;;25.46;49.32;98491.97;4995412;28;20293;-59
2021/08/22 08:44:12;;;;;;;12.63;11.50;;;;;;;25.45;49.08;98491.13;4995616;28;20202;-59
2021/08/22 08:46:53;;;;;;;16.53;12.87;;;;;;;25.44;49.54;98496.69;4995775;28;20223;-58
2021/08/22 08:49:31;;;;;;;15.20;13.80;;;;;;;25.44;49.46;98500.16;4995867;28;20199;-59
2021/08/22 08:52:14;;;;;;;14.70;13.40;;;;;;;25.40;49.75;98501.63;4995514;28;20207;-59
2021/08/22 08:54:48;;;;;;;14.30;13.00;;;;;;;25.42;49.34;98502.22;4995669;28;20179;-59
2021/08/22 08:57:15;;;;;;;15.27;13.87;;;;;;;25.44;48.97;98500.16;4995499;28;20172;-58
2021/08/22 08:59:41;;;;;;;14.63;13.23;;;;;;;25.48;48.99;98506.78;4995435;28;20273;-59
2021/08/22 09:02:09;;;;;;;15.47;14.17;;;;;;;25.51;49.11;98501.03;4995058;28;20226;-58
2021/08/22 09:04:51;;;;;;;15.40;14.10;;;;;;;25.53;49.13;98492.00;4995488;28;20684;-59
2021/08/22 09:07:42;;;;;;;14.80;13.30;;;;;;;25.57;48.96;98495.88;4994074;28;20180;-58
2021/08/22 09:10:30;;;;;;;13.80;12.43;;;;;;;25.54;49.16;98502.47;4995367;28;20201;-59
2021/08/22 09:13:46;;;;;;;12.40;11.40;;;;;;;25.54;49.03;98507.00;4995024;28;20183;-58
2021/08/22 09:16:40;;;;;;;12.03;10.83;;;;;;;25.57;48.61;98499.41;4995385;28;20175;-59
2021/08/22 09:19:44;;;;;;;11.50;10.57;;;;;;;25.60;48.84;98507.00;4995127;28;20191;-59
2021/08/22 09:22:38;;;;;;;11.07;10.17;;;;;;;25.57;48.65;98493.22;4994769;28;20207;-59
2021/08/22 09:25:35;;;;;;;10.10;9.20;;;;;;;25.60;48.85;98496.31;4994932;28;20238;-58
2021/08/22 09:28:21;;;;;;;9.77;8.50;;;;;;;25.62;48.51;98496.09;4994576;28;20195;-59
2021/08/22 09:31:25;;;;;;;8.97;8.07;;;;;;;25.64;48.52;98494.84;4994874;28;20187;-60
2021/08/22 09:34:28;;;;;;;8.80;8.00;;;;;;;25.67;48.38;98493.63;4994994;28;20171;-61
2021/08/22 09:37:09;;;;;;;10.90;10.00;;;;;;;25.70;48.15;98498.56;4994577;28;20195;-61
2021/08/22 09:39:57;;;;;;;10.00;9.00;;;;;;;25.74;47.97;98485.59;4995183;28;20176;-61
2021/08/22 09:43:01;;;;;;;8.87;8.13;;;;;;;25.80;47.67;98480.22;4993321;28;20669;-60
2021/08/22 09:46:05;;;;;;;8.37;7.60;;;;;;;25.80;47.89;98492.78;4994988;28;20669;-60
2021/08/22 09:48:53;;;;;;;8.77;7.97;;;;;;;25.78;47.88;98492.16;4994473;28;20199;-61
2021/08/22 09:51:39;;;;;;;8.30;7.60;;;;;;;25.78;47.65;98490.31;4993874;28;20205;-61
2021/08/22 09:54:27;;;;;;;8.37;7.67;;;;;;;25.75;47.62;98503.28;4994853;28;20186;-60
2021/08/22 09:57:31;;;;;;;8.30;7.60;;;;;;;25.80;47.86;98500.81;4994520;28;20172;-61
2021/08/22 10:00:35;;;;;;;8.03;7.33;;;;;;;25.79;47.44;98499.16;4993066;28;20558;-60
2021/08/22 10:03:20;;;;;;;8.20;7.40;;;;;;;25.74;47.47;98499.78;4993014;28;20192;-60
2021/08/22 10:06:08;;;;;;;8.33;7.63;;;;;;;25.76;47.43;98499.59;4993298;28;20206;-61
2021/08/22 10:08:45;;;;;;;7.73;7.13;;;;;;;25.79;47.25;98494.63;4994448;28;20186;-61
2021/08/22 10:11:15;;;;;;;7.90;7.30;;;;;;;25.79;46.99;98488.47;4994186;28;20221;-61
2021/08/22 10:13:42;;;;;;;7.90;7.23;;;;;;;25.78;47.47;98484.97;4993994;28;20175;-60
2021/08/22 10:16:24;;;;;;;8.10;7.50;;;;;;;25.78;47.15;98490.31;4994285;28;20181;-60
2021/08/22 10:18:51;;;;;;;8.17;7.47;;;;;;;25.73;47.35;98482.09;4993905;28;20198;-61
2021/08/22 10:21:27;;;;;;;7.23;6.63;;;;;;;25.69;47.44;98490.72;4993876;28;20207;-60
2021/08/22 10:23:56;;;;;;;7.93;7.20;;;;;;;25.64;47.37;98488.69;4994391;28;20180;-61
2021/08/22 10:26:46;;;;;;;7.53;6.93;;;;;;;25.57;47.57;98486.03;4994154;28;20215;-61
2021/08/22 10:29:21;;;;;;;7.40;6.20;;;;;;;25.54;47.57;98481.09;4994205;28;20184;-60
2021/08/22 10:31:50;;;;;;;6.87;6.13;;;;;;;25.49;48.11;98487.06;4993715;28;20214;-60
2021/08/22 10:34:17;;;;;;;5.80;5.30;;;;;;;25.49;48.31;98494.25;4993714;28;20195;-61
2021/08/22 10:36:43;;;;;;;6.30;5.80;;;;;;;25.54;48.35;98488.28;4993809;28;20188;-61
2021/08/22 10:39:19;;;;;;;5.67;5.17;;;;;;;25.59;48.22;98485.81;4993763;28;20528;-62
2021/08/22 10:41:46;;;;;;;6.50;5.97;;;;;;;25.61;48.21;98484.59;4992599;28;20222;-60
2021/08/22 10:44:39;;;;;;;6.40;5.80;;;;;;;25.63;48.42;98469.16;4993839;28;20192;-60
2021/08/22 10:47:10;;;;;;;8.77;6.00;;;;;;;25.64;48.47;98469.97;4994065;28;20199;-60
2021/08/22 10:49:49;;;;;;;8.70;5.70;;;;;;;25.63;48.38;98481.69;4994250;28;20283;-60
2021/08/22 10:52:22;;;;;;;7.20;5.40;;;;;;;25.61;48.31;98475.75;4993847;28;20214;-60
2021/08/22 10:55:11;;;;;;;5.60;5.10;;;;;;;25.59;48.39;98486.66;4994048;28;20600;-60
2021/08/22 10:57:43;;;;;;;7.47;5.10;;;;;;;25.55;48.43;98479.25;4992458;28;20191;-60
2021/08/22 11:00:46;;;;;;;6.40;5.33;;;;;;;25.57;48.73;98487.88;4994306;28;20180;-60
2021/08/22 11:03:19;;;;;;;8.17;5.90;;;;;;;25.53;48.77;98486.66;4955135;28;20703;-60
2021/08/22 11:05:46;;;;;;;6.17;5.57;;;;;;;25.54;48.80;98485.63;4991348;28;20705;-60
2021/08/22 11:08:20;;;;;;;6.10;5.50;;;;;;;25.54;48.52;98472.25;4996624;28;20206;-60
2021/08/22 11:11:00;;;;;;;5.97;5.40;;;;;;;25.56;48.25;98470.19;4998122;28;20630;-61
2021/08/22 11:13:37;;;;;;;7.43;5.50;;;;;;;25.60;48.36;98466.06;4997437;28;20668;-57
2021/08/22 11:16:06;;;;;;;6.13;5.60;;;;;;;25.62;48.32;98458.66;4996348;28;20584;-59
2021/08/22 11:18:33;;;;;;;5.63;5.13;;;;;;;25.63;48.23;98452.28;4996513;28;20215;-57
2021/08/22 11:21:01;;;;;;;5.90;5.40;;;;;;;25.67;48.12;98458.88;4997704;28;20215;-57
2021/08/22 11:23:27;;;;;;;5.30;4.90;;;;;;;25.68;47.90;98462.38;4997345;28;20198;-59
2021/08/22 11:26:06;;;;;;;5.23;4.80;;;;;;;25.66;48.11;98459.91;4998014;28;20674;-58
2021/08/22 11:28:34;;;;;;;5.30;4.80;;;;;;;25.67;47.82;98455.38;4996629;28;20186;-59
2021/08/22 11:31:09;;;;;;;5.50;5.10;;;;;;;25.70;48.01;98454.97;4997831;28;20207;-60
2021/08/22 11:33:35;;;;;;;5.00;4.60;;;;;;;25.72;48.09;98459.06;4995709;28;20642;-60
2021/08/22 11:36:04;;;;;;;5.57;5.03;;;;;;;25.66;48.03;98451.91;4996913;28;20187;-59
2021/08/22 11:38:31;;;;;;;4.90;4.50;;;;;;;25.66;48.26;98457.25;4997192;28;20196;-59
2021/08/22 11:41:05;;;;;;;4.70;4.20;;;;;;;25.65;48.40;98452.91;4996655;28;20222;-59
2021/08/22 11:43:31;;;;;;;4.70;4.17;;;;;;;25.63;48.38;98460.31;4996628;28;20184;-59